Time;durP1;ratioP1;P1;durP2;ratioP2;P2;SDS_P1;SDS_P2;PMS_P1;PMS_P2;Temp;Humidity;BMP_temperature;BMP_pressure;BME280_temperature;BME280_humidity;BME280_pressure;Samples;Min_cycle;Max_cycle;Signal;HPM_P1;HPM_P2
2024/03/25 00:00:18;;;;;;;213.33;58.67;;;;;;;;;;4977153;28;20799;-46
2024/03/25 00:02:44;;;;;;;211.20;58.03;;;;;;;;;;4978633;28;20432;-47
2024/03/25 00:05:10;;;;;;;216.02;61.15;;;;;;;;;;4976696;28;20233;-47
2024/03/25 00:07:37;;;;;;;214.48;59.38;;;;;;;;;;4978630;28;20260;-46
2024/03/25 00:10:03;;;;;;;213.00;59.67;;;;;;;;;;4972559;28;20202;-46
2024/03/25 00:12:29;;;;;;;213.38;59.05;;;;;;;;;;4981140;28;20174;-46
2024/03/25 00:14:55;;;;;;;215.33;61.50;;;;;;;;;;4978654;28;20167;-45
2024/03/25 00:17:21;;;;;;;212.17;58.90;;;;;;;;;;4980024;28;20786;-46
2024/03/25 00:19:50;;;;;;;216.27;62.78;;;;;;;;;;4974874;28;20490;-46
2024/03/25 00:22:17;;;;;;;212.25;58.63;;;;;;;;;;4974814;28;20186;-47
2024/03/25 00:24:43;;;;;;;215.52;61.55;;;;;;;;;;4978401;28;20201;-46
2024/03/25 00:27:09;;;;;;;214.87;61.37;;;;;;;;;;4979371;28;20261;-46
2024/03/25 00:29:35;;;;;;;215.27;62.97;;;;;;;;;;4982892;28;20510;-46
2024/03/25 00:32:01;;;;;;;214.47;59.67;;;;;;;;;;4974660;28;20454;-46
2024/03/25 00:34:27;;;;;;;214.73;62.40;;;;;;;;;;4977081;28;20457;-46
2024/03/25 00:36:53;;;;;;;211.63;56.97;;;;;;;;;;4977215;28;20434;-46
2024/03/25 00:39:19;;;;;;;214.37;60.67;;;;;;;;;;4977698;28;20422;-46
2024/03/25 00:41:45;;;;;;;212.95;61.78;;;;;;;;;;4981206;28;20420;-47
2024/03/25 00:44:11;;;;;;;213.53;61.50;;;;;;;;;;4976262;28;20198;-46
2024/03/25 00:46:37;;;;;;;217.70;64.60;;;;;;;;;;4983862;28;20409;-46
2024/03/25 00:49:03;;;;;;;216.18;63.15;;;;;;;;;;4974473;28;20460;-47
2024/03/25 00:51:29;;;;;;;215.18;60.55;;;;;;;;;;4976991;28;20229;-46
2024/03/25 00:53:55;;;;;;;211.97;58.47;;;;;;;;;;4976864;28;20277;-46
2024/03/25 00:56:21;;;;;;;212.47;57.73;;;;;;;;;;4975780;28;20417;-46
2024/03/25 00:58:47;;;;;;;212.57;58.85;;;;;;;;;;4981184;28;20423;-46
2024/03/25 01:01:13;;;;;;;212.57;58.23;;;;;;;;;;4978929;28;20170;-47
2024/03/25 01:03:39;;;;;;;214.25;59.78;;;;;;;;;;4991296;28;20430;-45
2024/03/25 01:06:05;;;;;;;215.57;61.13;;;;;;;;;;4982957;28;20189;-46
2024/03/25 01:08:31;;;;;;;216.43;64.37;;;;;;;;;;4983351;28;20822;-45
2024/03/25 01:10:57;;;;;;;210.97;57.90;;;;;;;;;;4991539;28;20417;-44
2024/03/25 01:13:23;;;;;;;214.87;62.20;;;;;;;;;;4991362;28;20440;-45
2024/03/25 01:15:49;;;;;;;212.37;59.40;;;;;;;;;;4991332;28;20421;-45
2024/03/25 01:18:15;;;;;;;209.30;57.20;;;;;;;;;;4976203;28;20414;-45
2024/03/25 01:20:41;;;;;;;212.83;57.97;;;;;;;;;;4980075;28;20426;-46
2024/03/25 01:23:07;;;;;;;210.17;57.43;;;;;;;;;;4986242;28;21003;-45
2024/03/25 01:25:33;;;;;;;211.67;57.43;;;;;;;;;;4991221;28;20960;-45
2024/03/25 01:27:59;;;;;;;214.60;60.97;;;;;;;;;;4983287;28;20903;-45
2024/03/25 01:30:25;;;;;;;211.30;57.60;;;;;;;;;;4983167;28;20896;-44
2024/03/25 01:32:51;;;;;;;212.33;58.87;;;;;;;;;;4991583;28;20199;-45
2024/03/25 01:35:17;;;;;;;213.73;59.38;;;;;;;;;;4982975;28;20405;-45
2024/03/25 01:37:43;;;;;;;211.73;59.20;;;;;;;;;;4991239;28;20187;-45
2024/03/25 01:40:12;;;;;;;211.80;58.33;;;;;;;;;;4983467;28;20499;-44
2024/03/25 01:42:38;;;;;;;214.75;60.83;;;;;;;;;;4979029;28;20436;-46
2024/03/25 01:45:04;;;;;;;211.80;59.78;;;;;;;;;;4971834;28;20243;-47
2024/03/25 01:47:35;;;;;;;214.00;61.60;;;;;;;;;;4988876;28;20704;-44
2024/03/25 01:50:03;;;;;;;214.50;61.75;;;;;;;;;;4991149;28;20201;-44
2024/03/25 01:52:30;;;;;;;212.75;58.58;;;;;;;;;;4991412;28;20680;-44
2024/03/25 01:54:56;;;;;;;209.35;57.08;;;;;;;;;;4991114;28;20190;-44
2024/03/25 01:57:22;;;;;;;213.05;59.72;;;;;;;;;;4983005;28;20184;-46
2024/03/25 01:59:48;;;;;;;215.50;62.67;;;;;;;;;;4971694;28;20181;-45
2024/03/25 02:02:15;;;;;;;211.90;58.25;;;;;;;;;;4971886;28;20635;-45
2024/03/25 02:04:41;;;;;;;211.80;58.20;;;;;;;;;;4982348;28;20573;-45
2024/03/25 02:07:08;;;;;;;213.05;61.33;;;;;;;;;;4978397;28;20182;-44
2024/03/25 02:09:35;;;;;;;210.38;56.00;;;;;;;;;;4977484;28;20205;-44
2024/03/25 02:12:01;;;;;;;211.13;58.00;;;;;;;;;;4982067;28;20194;-47
2024/03/25 02:14:27;;;;;;;211.60;57.92;;;;;;;;;;4977566;28;20662;-44
2024/03/25 02:16:53;;;;;;;212.33;58.70;;;;;;;;;;4976055;28;20213;-45
2024/03/25 02:19:20;;;;;;;211.33;59.30;;;;;;;;;;4982957;28;20906;-45
2024/03/25 02:21:46;;;;;;;211.18;59.25;;;;;;;;;;4994514;28;20416;-46
2024/03/25 02:24:12;;;;;;;210.82;58.63;;;;;;;;;;4986382;28;20220;-45
2024/03/25 02:26:38;;;;;;;216.13;62.42;;;;;;;;;;4983537;28;20170;-47
2024/03/25 02:29:04;;;;;;;212.60;60.20;;;;;;;;;;4982823;28;20209;-44
2024/03/25 02:31:30;;;;;;;210.13;57.13;;;;;;;;;;4978169;28;20497;-44
2024/03/25 02:33:56;;;;;;;211.83;59.17;;;;;;;;;;4981629;28;20541;-44
2024/03/25 02:36:22;;;;;;;211.03;58.97;;;;;;;;;;4982659;28;20419;-48
2024/03/25 02:38:48;;;;;;;212.60;60.83;;;;;;;;;;4994118;28;20795;-44
2024/03/25 02:41:14;;;;;;;211.30;58.20;;;;;;;;;;4994191;28;20174;-45
2024/03/25 02:43:40;;;;;;;217.57;63.97;;;;;;;;;;4991781;28;20243;-47
2024/03/25 02:46:06;;;;;;;211.60;59.30;;;;;;;;;;4993965;28;20847;-45
2024/03/25 02:48:32;;;;;;;211.63;58.80;;;;;;;;;;4984483;28;20410;-44
2024/03/25 02:50:58;;;;;;;212.17;58.47;;;;;;;;;;4977531;28;20456;-44
2024/03/25 02:53:24;;;;;;;210.37;56.70;;;;;;;;;;4981385;28;20465;-44
2024/03/25 02:55:50;;;;;;;212.30;58.70;;;;;;;;;;4985569;28;20412;-45
2024/03/25 02:58:15;;;;;;;212.47;59.13;;;;;;;;;;4985606;28;20420;-45
2024/03/25 03:00:41;;;;;;;212.97;60.57;;;;;;;;;;4985887;28;20624;-44
2024/03/25 03:03:07;;;;;;;213.23;60.53;;;;;;;;;;4993662;28;20519;-45
2024/03/25 03:05:35;;;;;;;213.67;59.97;;;;;;;;;;4993403;28;20420;-44
2024/03/25 03:08:00;;;;;;;211.35;59.40;;;;;;;;;;4993547;28;20444;-46
2024/03/25 03:10:26;;;;;;;213.80;62.10;;;;;;;;;;4985581;28;20200;-45
2024/03/25 03:12:52;;;;;;;212.57;59.43;;;;;;;;;;4993555;28;20486;-44
2024/03/25 03:15:18;;;;;;;213.17;60.87;;;;;;;;;;4985515;28;20499;-44
2024/03/25 03:17:44;;;;;;;209.37;56.20;;;;;;;;;;4993158;28;20415;-44
2024/03/25 03:20:11;;;;;;;209.93;56.97;;;;;;;;;;4978948;28;20405;-45
2024/03/25 03:22:37;;;;;;;212.05;57.60;;;;;;;;;;4983804;28;20555;-45
2024/03/25 03:25:03;;;;;;;209.10;57.27;;;;;;;;;;4985126;28;20291;-45
2024/03/25 03:27:30;;;;;;;209.88;57.22;;;;;;;;;;4985552;28;20413;-45
2024/03/25 03:29:56;;;;;;;211.18;58.20;;;;;;;;;;4980638;28;20263;-44
2024/03/25 03:32:22;;;;;;;210.38;57.25;;;;;;;;;;4989988;28;20173;-46
2024/03/25 03:34:48;;;;;;;211.73;58.27;;;;;;;;;;4985320;28;20247;-45
2024/03/25 03:37:14;;;;;;;207.77;56.97;;;;;;;;;;4993094;28;20411;-44
2024/03/25 03:39:40;;;;;;;211.03;59.07;;;;;;;;;;4993149;28;20419;-45
2024/03/25 03:42:06;;;;;;;209.37;57.20;;;;;;;;;;4993161;28;20420;-44
2024/03/25 03:44:32;;;;;;;210.98;58.13;;;;;;;;;;4991135;28;20436;-44
2024/03/25 03:46:58;;;;;;;208.07;56.07;;;;;;;;;;4992565;28;20232;-45
2024/03/25 03:49:24;;;;;;;210.30;58.00;;;;;;;;;;4993093;28;20459;-45
2024/03/25 03:51:50;;;;;;;211.37;60.73;;;;;;;;;;4993039;28;20419;-45
2024/03/25 03:54:16;;;;;;;208.37;57.07;;;;;;;;;;4977668;28;20430;-46
2024/03/25 03:56:42;;;;;;;211.07;58.87;;;;;;;;;;4975987;28;20409;-46
2024/03/25 03:59:08;;;;;;;208.03;56.97;;;;;;;;;;4992972;28;20424;-44
2024/03/25 04:01:34;;;;;;;210.03;56.40;;;;;;;;;;4984713;28;20421;-44
2024/03/25 04:03:59;;;;;;;210.00;57.40;;;;;;;;;;4992671;28;20440;-44
2024/03/25 04:06:25;;;;;;;209.33;58.47;;;;;;;;;;4983002;28;20407;-44
2024/03/25 04:08:51;;;;;;;210.80;59.50;;;;;;;;;;4977660;28;20438;-45
2024/03/25 04:11:17;;;;;;;210.23;58.15;;;;;;;;;;4978837;28;20413;-46
2024/03/25 04:13:43;;;;;;;208.87;57.27;;;;;;;;;;4977707;28;20819;-44
2024/03/25 04:16:10;;;;;;;209.77;57.10;;;;;;;;;;4992326;28;20970;-44
2024/03/25 04:18:36;;;;;;;209.38;57.95;;;;;;;;;;4984438;28;20887;-47
2024/03/25 04:21:02;;;;;;;210.10;58.67;;;;;;;;;;4992522;28;20455;-44
2024/03/25 04:23:28;;;;;;;214.90;63.40;;;;;;;;;;4991687;28;20458;-44
2024/03/25 04:25:54;;;;;;;213.33;62.53;;;;;;;;;;4977501;28;20912;-44
2024/03/25 04:28:20;;;;;;;210.67;59.60;;;;;;;;;;4980480;28;20416;-44
2024/03/25 04:30:55;;;;;;;207.43;56.75;;;;;;;;;;4991909;28;20606;-44
2024/03/25 04:33:21;;;;;;;210.57;59.17;;;;;;;;;;4992187;28;20199;-44
2024/03/25 04:35:47;;;;;;;208.67;56.63;;;;;;;;;;4991923;28;20169;-44
2024/03/25 04:38:13;;;;;;;208.73;57.25;;;;;;;;;;4991781;28;20408;-44
2024/03/25 04:40:39;;;;;;;211.32;58.60;;;;;;;;;;4984139;28;20184;-45
2024/03/25 04:43:05;;;;;;;209.27;58.93;;;;;;;;;;4983951;28;20550;-44
2024/03/25 04:45:31;;;;;;;207.37;55.80;;;;;;;;;;4991573;28;20859;-44
2024/03/25 04:47:57;;;;;;;208.93;59.00;;;;;;;;;;4983750;28;20820;-46
2024/03/25 04:50:23;;;;;;;210.33;58.43;;;;;;;;;;4984705;28;20463;-46
2024/03/25 04:52:49;;;;;;;210.77;59.97;;;;;;;;;;4975670;28;20459;-45
2024/03/25 04:55:15;;;;;;;213.17;58.87;;;;;;;;;;4983634;28;20404;-46
2024/03/25 04:57:41;;;;;;;211.37;60.27;;;;;;;;;;4984512;28;20905;-45
2024/03/25 05:00:10;;;;;;;207.47;56.07;;;;;;;;;;4978264;28;20423;-44
2024/03/25 05:02:36;;;;;;;208.88;56.75;;;;;;;;;;4975696;28;20444;-44
2024/03/25 05:05:02;;;;;;;210.48;58.50;;;;;;;;;;4983466;28;20173;-45
2024/03/25 05:07:28;;;;;;;210.52;57.97;;;;;;;;;;4982508;28;20203;-44
2024/03/25 05:09:55;;;;;;;211.53;61.87;;;;;;;;;;4980160;28;20720;-44
2024/03/25 05:12:21;;;;;;;209.45;56.95;;;;;;;;;;4988106;28;20408;-44
2024/03/25 05:14:47;;;;;;;210.43;59.90;;;;;;;;;;4991441;28;20223;-45
2024/03/25 05:17:13;;;;;;;206.27;56.40;;;;;;;;;;4991160;28;20438;-44
2024/03/25 05:19:39;;;;;;;210.40;57.87;;;;;;;;;;4991424;28;20546;-45
2024/03/25 05:22:05;;;;;;;207.60;56.50;;;;;;;;;;4983624;28;20419;-45
2024/03/25 05:24:31;;;;;;;205.80;55.70;;;;;;;;;;4991429;28;20439;-44
2024/03/25 05:26:57;;;;;;;209.95;58.08;;;;;;;;;;4991179;28;20431;-44
2024/03/25 05:29:23;;;;;;;208.93;58.33;;;;;;;;;;4983297;28;20689;-45
2024/03/25 05:31:56;;;;;;;213.07;63.57;;;;;;;;;;4975643;28;20835;-44
2024/03/25 05:34:22;;;;;;;209.77;59.72;;;;;;;;;;4983151;28;20754;-44
2024/03/25 05:36:48;;;;;;;206.80;56.07;;;;;;;;;;4975480;28;20192;-44
2024/03/25 05:39:14;;;;;;;208.33;56.57;;;;;;;;;;4983336;28;20412;-45
2024/03/25 05:41:40;;;;;;;211.47;62.10;;;;;;;;;;4988906;28;20416;-45
2024/03/25 05:44:06;;;;;;;209.10;58.13;;;;;;;;;;4987992;28;20447;-45
2024/03/25 05:46:32;;;;;;;211.95;61.15;;;;;;;;;;4995404;28;20428;-45
2024/03/25 05:48:58;;;;;;;211.30;60.10;;;;;;;;;;4990222;28;20193;-44
2024/03/25 05:51:24;;;;;;;210.30;60.27;;;;;;;;;;4991825;28;20422;-45
2024/03/25 05:53:49;;;;;;;204.70;55.73;;;;;;;;;;4994966;28;20467;-44
2024/03/25 05:56:15;;;;;;;209.83;61.43;;;;;;;;;;4994746;28;20415;-44
2024/03/25 05:58:41;;;;;;;212.50;61.53;;;;;;;;;;4986771;28;20420;-45
2024/03/25 06:01:07;;;;;;;209.67;59.10;;;;;;;;;;4995314;28;20415;-47
2024/03/25 06:03:33;;;;;;;209.87;60.40;;;;;;;;;;4985167;28;20459;-43
2024/03/25 06:05:59;;;;;;;209.07;61.00;;;;;;;;;;4988284;28;20518;-44
2024/03/25 06:08:25;;;;;;;213.17;65.47;;;;;;;;;;4994925;28;20418;-44
2024/03/25 06:10:51;;;;;;;210.90;61.37;;;;;;;;;;4994855;28;20469;-44
2024/03/25 06:13:17;;;;;;;211.82;63.10;;;;;;;;;;4994601;28;20793;-44
2024/03/25 06:15:43;;;;;;;211.38;62.33;;;;;;;;;;4994784;28;20181;-45
2024/03/25 06:18:09;;;;;;;213.47;61.93;;;;;;;;;;4988075;28;20174;-46
2024/03/25 06:20:35;;;;;;;213.45;64.28;;;;;;;;;;4992833;28;20939;-45
2024/03/25 06:23:01;;;;;;;214.63;63.15;;;;;;;;;;4981016;28;20209;-45
2024/03/25 06:25:27;;;;;;;209.47;57.57;;;;;;;;;;4983516;28;20190;-44
2024/03/25 06:27:54;;;;;;;211.57;61.20;;;;;;;;;;4986323;28;20420;-44
2024/03/25 06:35:49;;;;;;;211.68;60.70;;;;;;;;;;4990639;28;20180;-46
2024/03/25 06:38:15;;;;;;;213.57;64.57;;;;;;;;;;4989852;28;20256;-44
2024/03/25 06:40:41;;;;;;;213.27;59.77;;;;;;;;;;4986082;28;20216;-44
2024/03/25 06:43:07;;;;;;;217.05;61.72;;;;;;;;;;4991809;28;20434;-45
2024/03/25 06:45:33;;;;;;;217.65;61.42;;;;;;;;;;4993820;28;20735;-45
2024/03/25 06:47:59;;;;;;;225.20;69.13;;;;;;;;;;4993995;28;20275;-45
2024/03/25 06:50:25;;;;;;;224.73;70.57;;;;;;;;;;4978259;28;20468;-45
2024/03/25 06:52:51;;;;;;;226.80;70.07;;;;;;;;;;4977870;28;20520;-45
2024/03/25 06:55:22;;;;;;;235.10;81.00;;;;;;;;;;4973943;28;20417;-45
2024/03/25 06:57:48;;;;;;;234.30;81.13;;;;;;;;;;4977803;28;20471;-45
2024/03/25 07:00:14;;;;;;;235.43;82.23;;;;;;;;;;4989585;28;20187;-46
2024/03/25 07:02:40;;;;;;;240.15;82.65;;;;;;;;;;4979716;28;20404;-46
2024/03/25 07:05:07;;;;;;;238.53;81.83;;;;;;;;;;4988022;28;20754;-46
2024/03/25 07:07:34;;;;;;;237.80;82.47;;;;;;;;;;4993581;28;20572;-46
2024/03/25 07:10:00;;;;;;;241.60;86.00;;;;;;;;;;4993502;28;20882;-46
2024/03/25 07:12:25;;;;;;;240.30;83.87;;;;;;;;;;4993417;28;20970;-47
2024/03/25 07:14:51;;;;;;;241.20;87.00;;;;;;;;;;4983797;28;20489;-47
2024/03/25 07:17:18;;;;;;;242.57;86.10;;;;;;;;;;4983170;28;20411;-47
2024/03/25 07:19:44;;;;;;;238.40;83.33;;;;;;;;;;4993445;28;20416;-46
2024/03/25 07:22:10;;;;;;;241.27;84.50;;;;;;;;;;4993389;28;20418;-47
2024/03/25 07:24:36;;;;;;;243.67;85.40;;;;;;;;;;4993157;28;20973;-46
2024/03/25 07:27:02;;;;;;;242.33;84.37;;;;;;;;;;4992936;28;20475;-46
2024/03/25 07:29:28;;;;;;;242.73;84.53;;;;;;;;;;4993238;28;20462;-46
2024/03/25 07:31:54;;;;;;;244.07;88.90;;;;;;;;;;4980705;28;20438;-46
2024/03/25 07:34:20;;;;;;;243.00;85.80;;;;;;;;;;4976252;28;20828;-47
2024/03/25 07:36:48;;;;;;;246.03;89.13;;;;;;;;;;4977219;28;20485;-46
2024/03/25 07:39:14;;;;;;;241.60;83.17;;;;;;;;;;4976279;28;20492;-46
2024/03/25 07:41:40;;;;;;;243.90;87.77;;;;;;;;;;4978829;28;20499;-45
2024/03/25 07:44:06;;;;;;;244.17;86.73;;;;;;;;;;4972276;28;21168;-46
2024/03/25 07:46:32;;;;;;;243.37;84.43;;;;;;;;;;4976323;28;20501;-46
2024/03/25 07:48:58;;;;;;;242.83;85.00;;;;;;;;;;4975207;28;20444;-47
2024/03/25 07:51:24;;;;;;;243.03;85.33;;;;;;;;;;4974610;28;20430;-47
2024/03/25 07:53:50;;;;;;;247.83;93.00;;;;;;;;;;4976707;28;20923;-48
2024/03/25 07:56:16;;;;;;;245.17;87.10;;;;;;;;;;4970444;28;20422;-47
2024/03/25 07:58:42;;;;;;;242.40;84.60;;;;;;;;;;4979249;28;20781;-48
2024/03/25 08:01:08;;;;;;;237.43;78.27;;;;;;;;;;4976596;28;20420;-47
2024/03/25 08:03:34;;;;;;;241.43;84.67;;;;;;;;;;4977625;28;20433;-47
2024/03/25 08:06:00;;;;;;;241.43;83.87;;;;;;;;;;4973838;28;20411;-48
2024/03/25 08:08:27;;;;;;;240.70;83.40;;;;;;;;;;4981379;28;20414;-45
2024/03/25 08:10:52;;;;;;;240.67;82.10;;;;;;;;;;4979683;28;20476;-46
2024/03/25 08:13:22;;;;;;;241.23;86.17;;;;;;;;;;4980420;28;20422;-46
2024/03/25 08:15:48;;;;;;;243.77;88.50;;;;;;;;;;4977312;28;20411;-48
2024/03/25 08:18:14;;;;;;;243.23;87.47;;;;;;;;;;4977534;28;20780;-47
2024/03/25 08:20:40;;;;;;;242.27;84.70;;;;;;;;;;4977066;28;20486;-46
2024/03/25 08:23:06;;;;;;;243.07;87.67;;;;;;;;;;4980550;28;20463;-46
2024/03/25 08:25:32;;;;;;;243.27;87.37;;;;;;;;;;4983242;28;20415;-45
2024/03/25 08:27:58;;;;;;;242.27;85.97;;;;;;;;;;4976841;28;20831;-47
2024/03/25 08:30:24;;;;;;;247.20;89.67;;;;;;;;;;4977714;28;20460;-46
2024/03/25 08:32:51;;;;;;;243.20;83.70;;;;;;;;;;4972250;28;20512;-46
2024/03/25 08:35:17;;;;;;;249.27;91.03;;;;;;;;;;4975706;28;20411;-47
2024/03/25 08:37:43;;;;;;;248.47;91.63;;;;;;;;;;4978978;28;20448;-46
2024/03/25 08:40:09;;;;;;;244.07;88.13;;;;;;;;;;4980425;28;20448;-47
2024/03/25 08:42:35;;;;;;;249.77;91.47;;;;;;;;;;4991599;28;20537;-46
2024/03/25 08:45:01;;;;;;;246.13;87.20;;;;;;;;;;4991491;28;20925;-47
2024/03/25 08:47:27;;;;;;;249.40;90.60;;;;;;;;;;4991798;28;20438;-46
2024/03/25 08:49:53;;;;;;;245.73;87.40;;;;;;;;;;4991526;28;20462;-48
2024/03/25 08:52:19;;;;;;;243.87;87.40;;;;;;;;;;4988459;28;20493;-46
2024/03/25 08:54:45;;;;;;;246.07;84.87;;;;;;;;;;4991212;28;20797;-46
2024/03/25 08:57:11;;;;;;;246.27;84.57;;;;;;;;;;4990030;28;20887;-46
2024/03/25 08:59:37;;;;;;;245.20;87.03;;;;;;;;;;4991116;28;20902;-46
2024/03/25 09:02:03;;;;;;;248.43;92.10;;;;;;;;;;4990899;28;20412;-46
2024/03/25 09:04:29;;;;;;;243.97;84.00;;;;;;;;;;4990218;28;20432;-47
2024/03/25 09:06:55;;;;;;;250.80;93.80;;;;;;;;;;4991382;28;20509;-48
2024/03/25 09:12:06;;;;;;;246.50;90.80;;;;;;;;;;4991800;28;20411;-46
2024/03/25 09:14:33;;;;;;;245.83;90.37;;;;;;;;;;4992175;28;20428;-49
2024/03/25 09:16:59;;;;;;;244.87;87.60;;;;;;;;;;4987123;28;20436;-47
2024/03/25 09:19:25;;;;;;;244.77;87.57;;;;;;;;;;4980825;28;20540;-47
2024/03/25 09:21:51;;;;;;;243.27;86.23;;;;;;;;;;4988389;28;20816;-48
2024/03/25 09:24:19;;;;;;;246.60;87.70;;;;;;;;;;4987953;28;20458;-47
2024/03/25 09:26:46;;;;;;;247.47;87.97;;;;;;;;;;4992044;28;20423;-49
2024/03/25 09:29:12;;;;;;;245.07;87.33;;;;;;;;;;4992211;28;20455;-46
2024/03/25 09:31:39;;;;;;;243.87;84.63;;;;;;;;;;4984922;28;20761;-44
2024/03/25 09:34:05;;;;;;;242.57;82.07;;;;;;;;;;4971899;28;20422;-45
2024/03/25 09:36:31;;;;;;;246.93;88.43;;;;;;;;;;4976512;28;20836;-46
2024/03/25 09:38:57;;;;;;;242.30;84.33;;;;;;;;;;4991553;28;20483;-46
2024/03/25 09:41:23;;;;;;;239.33;80.13;;;;;;;;;;4991179;28;20451;-46
2024/03/25 09:43:53;;;;;;;239.43;79.93;;;;;;;;;;4987832;28;20428;-47
2024/03/25 09:46:19;;;;;;;241.43;82.17;;;;;;;;;;4990026;28;20907;-46
2024/03/25 09:48:45;;;;;;;242.83;83.83;;;;;;;;;;4991142;28;20451;-46
2024/03/25 09:51:11;;;;;;;239.77;81.40;;;;;;;;;;4991296;28;20469;-46
2024/03/25 09:53:36;;;;;;;237.47;78.70;;;;;;;;;;4989828;28;20846;-45
2024/03/25 09:56:03;;;;;;;240.30;82.97;;;;;;;;;;4991026;28;20417;-48
2024/03/25 09:58:29;;;;;;;242.80;82.43;;;;;;;;;;4990883;28;20412;-47
2024/03/25 10:00:56;;;;;;;243.50;84.57;;;;;;;;;;4991087;28;20427;-46
2024/03/25 10:03:22;;;;;;;244.27;86.70;;;;;;;;;;4991158;28;20435;-47
2024/03/25 10:05:48;;;;;;;244.00;87.47;;;;;;;;;;4984936;28;20506;-45
2024/03/25 10:08:14;;;;;;;243.50;85.83;;;;;;;;;;4991008;28;20419;-46
2024/03/25 10:10:40;;;;;;;244.47;88.30;;;;;;;;;;4991053;28;20466;-47
2024/03/25 10:13:06;;;;;;;249.43;94.77;;;;;;;;;;4991085;28;20428;-45
2024/03/25 10:15:33;;;;;;;249.43;95.73;;;;;;;;;;4981623;28;20474;-45
2024/03/25 10:17:59;;;;;;;249.67;95.00;;;;;;;;;;4970903;28;20500;-47
2024/03/25 10:20:25;;;;;;;250.23;95.60;;;;;;;;;;4986864;28;20683;-46
2024/03/25 10:22:51;;;;;;;248.97;94.40;;;;;;;;;;4990126;28;20454;-48
2024/03/25 10:25:22;;;;;;;255.33;103.30;;;;;;;;;;4991024;28;20408;-48
2024/03/25 10:27:58;;;;;;;254.87;104.20;;;;;;;;;;4990812;28;20412;-49
2024/03/25 10:30:24;;;;;;;250.17;99.93;;;;;;;;;;4993825;28;20558;-49
2024/03/25 10:33:06;;;;;;;251.93;102.23;;;;;;;;;;4982616;28;20490;-47
2024/03/25 10:35:33;;;;;;;255.87;109.20;;;;;;;;;;4990948;28;20788;-47
2024/03/25 10:38:00;;;;;;;250.50;98.83;;;;;;;;;;4985804;28;20411;-48
2024/03/25 10:40:28;;;;;;;261.13;112.93;;;;;;;;;;4990146;28;20419;-48
2024/03/25 10:42:59;;;;;;;252.37;102.50;;;;;;;;;;4992189;28;20488;-47
2024/03/25 10:45:27;;;;;;;252.67;102.67;;;;;;;;;;4994026;28;20415;-48
2024/03/25 10:47:53;;;;;;;249.27;100.07;;;;;;;;;;4989876;28;20451;-49
2024/03/25 10:50:20;;;;;;;251.17;100.57;;;;;;;;;;4989866;28;20463;-49
2024/03/25 10:52:46;;;;;;;252.00;99.17;;;;;;;;;;4993842;28;20894;-48
2024/03/25 10:55:12;;;;;;;253.87;100.73;;;;;;;;;;4984893;28;20451;-48
2024/03/25 10:57:38;;;;;;;246.83;94.03;;;;;;;;;;4984713;28;20431;-50
2024/03/25 11:00:04;;;;;;;246.23;93.03;;;;;;;;;;4988032;28;20443;-49
2024/03/25 11:02:31;;;;;;;249.17;96.90;;;;;;;;;;4993480;28;20418;-49
2024/03/25 11:04:58;;;;;;;248.00;96.43;;;;;;;;;;4990237;28;20459;-46
2024/03/25 11:07:32;;;;;;;252.33;98.17;;;;;;;;;;4993318;28;20585;-49
2024/03/25 11:10:05;;;;;;;252.37;98.70;;;;;;;;;;4992957;28;20554;-50
2024/03/25 11:12:38;;;;;;;248.87;95.77;;;;;;;;;;4984210;28;20414;-48
2024/03/25 11:15:05;;;;;;;251.07;95.40;;;;;;;;;;4988206;28;20414;-46
2024/03/25 11:17:32;;;;;;;245.67;90.43;;;;;;;;;;4993676;28;20916;-49
2024/03/25 11:20:09;;;;;;;249.17;96.73;;;;;;;;;;4993632;28;20411;-49
2024/03/25 11:22:35;;;;;;;261.33;103.40;;;;;;;;;;4992350;28;20415;-48
2024/03/25 11:25:08;;;;;;;248.77;95.10;;;;;;;;;;4991377;28;20511;-48
2024/03/25 11:27:37;;;;;;;248.47;95.67;;;;;;;;;;4991509;28;20404;-47
2024/03/25 11:30:06;;;;;;;250.93;100.73;;;;;;;;;;4993440;28;20459;-49
2024/03/25 11:32:43;;;;;;;247.70;94.40;;;;;;;;;;4987873;28;20424;-48
2024/03/25 11:35:09;;;;;;;251.27;95.63;;;;;;;;;;4993225;28;20451;-49
2024/03/25 11:37:40;;;;;;;244.73;89.53;;;;;;;;;;4993878;28;20410;-49
2024/03/25 11:40:07;;;;;;;247.77;93.37;;;;;;;;;;4989536;28;20424;-48
2024/03/25 11:42:33;;;;;;;249.40;94.03;;;;;;;;;;4990518;28;20783;-49
2024/03/25 11:45:00;;;;;;;246.43;92.33;;;;;;;;;;4992890;28;20513;-48
2024/03/25 11:47:26;;;;;;;250.13;96.63;;;;;;;;;;4992706;28;20415;-47
2024/03/25 11:49:52;;;;;;;248.10;91.90;;;;;;;;;;4986224;28;20498;-47
2024/03/25 11:52:18;;;;;;;249.10;96.73;;;;;;;;;;4992767;28;20416;-48
2024/03/25 11:54:44;;;;;;;247.23;93.97;;;;;;;;;;4992726;28;20943;-48
2024/03/25 11:57:10;;;;;;;246.93;95.20;;;;;;;;;;4992235;28;20837;-47
2024/03/25 11:59:36;;;;;;;251.17;101.03;;;;;;;;;;4992511;28;20443;-48
2024/03/25 12:02:02;;;;;;;247.40;94.70;;;;;;;;;;4992802;28;20518;-46
2024/03/25 12:04:28;;;;;;;248.13;98.03;;;;;;;;;;4992508;28;20507;-47
2024/03/25 12:06:57;;;;;;;250.50;97.53;;;;;;;;;;4992548;28;21015;-49
2024/03/25 12:12:08;;;;;;;247.57;94.40;;;;;;;;;;4976024;28;20455;-49
2024/03/25 12:14:34;;;;;;;248.33;96.10;;;;;;;;;;4992621;28;20428;-49
2024/03/25 12:17:02;;;;;;;249.30;97.03;;;;;;;;;;4992568;28;20531;-48
2024/03/25 12:19:30;;;;;;;247.20;94.90;;;;;;;;;;4984432;28;20416;-49
2024/03/25 12:22:03;;;;;;;248.47;95.93;;;;;;;;;;4992534;28;20423;-47
2024/03/25 12:24:29;;;;;;;244.20;89.57;;;;;;;;;;4984054;28;20452;-45
2024/03/25 12:26:55;;;;;;;248.30;95.13;;;;;;;;;;4992045;28;20420;-47
2024/03/25 12:29:21;;;;;;;247.83;93.80;;;;;;;;;;4992386;28;20463;-46
2024/03/25 12:32:01;;;;;;;247.80;95.80;;;;;;;;;;4992204;28;20442;-46
2024/03/25 12:34:27;;;;;;;249.37;98.87;;;;;;;;;;4983744;28;20428;-45
2024/03/25 12:37:01;;;;;;;251.53;102.80;;;;;;;;;;4980593;28;20408;-47
2024/03/25 12:39:28;;;;;;;251.23;103.60;;;;;;;;;;4989683;28;20791;-47
2024/03/25 12:41:54;;;;;;;250.17;98.10;;;;;;;;;;4988305;28;20468;-48
2024/03/25 12:44:20;;;;;;;249.67;99.47;;;;;;;;;;4988445;28;20471;-48
2024/03/25 12:46:46;;;;;;;250.30;97.70;;;;;;;;;;4987410;28;20463;-48
2024/03/25 12:49:12;;;;;;;251.13;99.90;;;;;;;;;;4987590;28;20450;-49
2024/03/25 12:51:38;;;;;;;247.00;90.23;;;;;;;;;;4982549;28;20427;-47
2024/03/25 12:54:04;;;;;;;247.27;92.77;;;;;;;;;;4992188;28;20792;-46
2024/03/25 12:56:30;;;;;;;245.47;90.20;;;;;;;;;;4991729;28;20792;-46
2024/03/25 12:58:56;;;;;;;245.40;88.67;;;;;;;;;;4992561;28;20429;-46
2024/03/25 13:01:22;;;;;;;246.33;90.37;;;;;;;;;;4991813;28;20424;-47
2024/03/25 13:03:48;;;;;;;247.13;92.53;;;;;;;;;;4991623;28;20479;-47
2024/03/25 13:06:14;;;;;;;246.80;91.77;;;;;;;;;;4991475;28;20438;-46
2024/03/25 13:08:40;;;;;;;246.73;93.03;;;;;;;;;;4991734;28;20408;-47
2024/03/25 13:11:06;;;;;;;248.13;95.83;;;;;;;;;;4991607;28;20463;-47
2024/03/25 13:13:32;;;;;;;252.87;102.80;;;;;;;;;;4991459;28;20430;-48
2024/03/25 13:15:58;;;;;;;250.27;101.90;;;;;;;;;;4991718;28;20805;-48
2024/03/25 13:18:24;;;;;;;252.37;104.23;;;;;;;;;;4991652;28;20499;-47
2024/03/25 13:20:50;;;;;;;253.47;106.53;;;;;;;;;;4991534;28;20465;-48
2024/03/25 13:23:16;;;;;;;251.90;104.67;;;;;;;;;;4991401;28;20460;-47
2024/03/25 13:25:42;;;;;;;247.90;97.67;;;;;;;;;;4991297;28;20427;-47
2024/03/25 13:28:08;;;;;;;250.33;100.13;;;;;;;;;;4991423;28;20450;-47
2024/03/25 13:30:34;;;;;;;250.23;100.40;;;;;;;;;;4991364;28;20463;-47
2024/03/25 13:33:00;;;;;;;248.90;97.90;;;;;;;;;;4977608;28;20449;-48
2024/03/25 13:35:27;;;;;;;249.13;97.60;;;;;;;;;;4974126;28;20405;-47
2024/03/25 13:37:52;;;;;;;249.27;102.13;;;;;;;;;;4978919;28;20776;-47
2024/03/25 13:40:18;;;;;;;248.73;97.47;;;;;;;;;;4991765;28;20412;-47
2024/03/25 13:42:45;;;;;;;246.60;97.63;;;;;;;;;;4989197;28;20924;-47
2024/03/25 13:45:11;;;;;;;253.17;106.30;;;;;;;;;;4991089;28;20416;-47
2024/03/25 13:47:36;;;;;;;251.87;102.50;;;;;;;;;;4988280;28;20826;-48
2024/03/25 13:50:07;;;;;;;247.23;97.87;;;;;;;;;;4972589;28;20816;-47
2024/03/25 13:52:33;;;;;;;250.77;101.47;;;;;;;;;;4989151;28;20825;-47
2024/03/25 13:55:00;;;;;;;248.37;98.10;;;;;;;;;;4985411;28;20764;-47
2024/03/25 13:57:26;;;;;;;245.77;97.80;;;;;;;;;;4990940;28;20423;-47
2024/03/25 13:59:52;;;;;;;245.97;99.03;;;;;;;;;;4975856;28;20428;-48
2024/03/25 14:02:18;;;;;;;249.23;104.13;;;;;;;;;;4975254;28;20980;-47
2024/03/25 14:04:44;;;;;;;247.67;100.63;;;;;;;;;;4992263;28;20436;-48
2024/03/25 14:07:10;;;;;;;252.00;107.93;;;;;;;;;;4990360;28;20439;-47
2024/03/25 14:09:36;;;;;;;246.63;98.30;;;;;;;;;;4994750;28;21018;-47